createdAt,value
2017-12-25T00:01:04.020Z,151.40
2017-12-25T00:03:34.113Z,137.70
2017-12-25T00:06:02.347Z,134.73
2017-12-25T00:08:31.223Z,142.27
2017-12-25T00:10:59.274Z,145.60
2017-12-25T00:13:27.437Z,134.27
2017-12-25T00:15:55.482Z,131.77
2017-12-25T00:18:23.499Z,130.30
2017-12-25T00:20:51.654Z,132.33
2017-12-25T00:23:19.672Z,127.33
2017-12-25T00:25:48.486Z,142.50
2017-12-25T00:28:16.642Z,127.70
2017-12-25T00:30:45.443Z,139.77
2017-12-25T00:33:14.198Z,127.53
2017-12-25T00:35:42.335Z,130.43
2017-12-25T00:38:10.346Z,129.03
2017-12-25T00:40:38.394Z,131.00
2017-12-25T00:43:06.538Z,127.60
2017-12-25T00:45:34.550Z,136.47
2017-12-25T00:48:02.566Z,144.73
2017-12-25T00:50:31.611Z,136.70
2017-12-25T00:53:00.463Z,132.80
2017-12-25T00:55:28.507Z,142.00
2017-12-25T00:57:57.419Z,130.80
2017-12-25T01:00:26.170Z,134.50
2017-12-25T01:02:54.228Z,140.57
2017-12-25T01:05:22.619Z,122.37
2017-12-25T01:07:50.638Z,131.47
2017-12-25T01:10:18.642Z,134.73
2017-12-25T01:12:46.799Z,134.20
2017-12-25T01:15:14.851Z,136.47
2017-12-25T01:17:43.607Z,126.47
2017-12-25T01:20:11.746Z,122.80
2017-12-25T01:22:39.774Z,115.63
2017-12-25T01:25:08.530Z,129.60
2017-12-25T01:27:36.646Z,144.37
2017-12-25T01:30:05.439Z,122.50
2017-12-25T01:32:34.202Z,139.00
2017-12-25T01:35:02.373Z,135.17
2017-12-25T01:37:30.422Z,137.67
2017-12-25T01:39:58.456Z,141.73
2017-12-25T01:42:26.579Z,150.37
2017-12-25T01:44:54.748Z,147.27
2017-12-25T01:47:22.778Z,135.03
2017-12-25T01:49:50.947Z,136.30
2017-12-25T01:52:19.130Z,135.13
2017-12-25T01:54:47.439Z,141.97
2017-12-25T02:10:42.673Z,146.50
2017-12-25T02:13:10.723Z,144.47
2017-12-25T02:15:38.762Z,150.97
2017-12-25T02:18:07.116Z,144.00
2017-12-25T02:20:35.886Z,142.50
2017-12-25T02:23:03.910Z,148.77
2017-12-25T02:25:32.042Z,143.13
2017-12-25T02:28:00.955Z,149.27
2017-12-25T02:30:29.771Z,146.97
2017-12-25T02:32:57.944Z,153.07
2017-12-25T02:35:26.035Z,152.53
2017-12-25T02:37:54.046Z,156.03
2017-12-25T02:40:22.983Z,152.73
2017-12-25T02:42:51.027Z,167.30
2017-12-25T02:45:19.813Z,155.73
2017-12-25T02:47:48.780Z,157.77
2017-12-25T02:50:16.802Z,160.33
2017-12-25T02:52:44.847Z,154.87
2017-12-25T02:55:13.715Z,160.70
2017-12-25T02:57:41.731Z,156.60
2017-12-25T03:00:09.791Z,150.90
2017-12-25T03:02:38.707Z,166.73
2017-12-25T03:05:06.752Z,159.90
2017-12-25T03:07:35.510Z,176.80
2017-12-25T03:10:03.675Z,166.30
2017-12-25T03:12:31.854Z,170.60
2017-12-25T03:14:59.870Z,172.13
2017-12-25T03:17:28.783Z,172.47
2017-12-25T03:19:56.801Z,172.13
2017-12-25T03:22:24.814Z,178.17
2017-12-25T03:24:52.954Z,171.80
2017-12-25T03:27:20.966Z,168.70
2017-12-25T03:29:49.019Z,172.27
2017-12-25T03:32:17.948Z,177.70
2017-12-25T03:34:46.003Z,172.70
2017-12-25T03:37:14.059Z,169.47
2017-12-25T03:39:42.215Z,172.90
2017-12-25T03:42:11.007Z,166.97
2017-12-25T03:44:39.766Z,164.37
2017-12-25T03:47:08.023Z,166.07
2017-12-25T03:49:36.022Z,165.90
2017-12-25T03:52:04.054Z,178.20
2017-12-25T03:54:32.281Z,174.37
2017-12-25T03:57:00.438Z,167.93
2017-12-25T03:59:28.523Z,161.93
2017-12-25T04:01:56.695Z,166.77
2017-12-25T04:04:24.691Z,160.33
2017-12-25T04:06:52.675Z,150.47
2017-12-25T04:09:21.502Z,156.17
2017-12-25T04:11:49.494Z,157.13
2017-12-25T04:14:17.680Z,152.43
2017-12-25T04:16:45.887Z,151.27
2017-12-25T04:19:14.594Z,161.87
2017-12-25T04:21:42.704Z,155.70
2017-12-25T04:24:10.806Z,150.00
2017-12-25T04:26:38.972Z,151.23
2017-12-25T04:29:07.068Z,147.77
2017-12-25T04:31:35.996Z,145.07
2017-12-25T04:34:04.083Z,135.70
2017-12-25T04:36:32.098Z,113.10
2017-12-25T04:39:00.951Z,107.10
2017-12-25T04:41:28.933Z,112.80
2017-12-25T04:43:56.996Z,118.30
2017-12-25T04:46:25.216Z,119.97
2017-12-25T04:48:54.012Z,100.93
2017-12-25T04:51:22.730Z,113.20
2017-12-25T04:53:50.919Z,91.70
2017-12-25T04:56:18.930Z,88.23
2017-12-25T04:58:47.642Z,102.33
2017-12-25T05:01:15.726Z,124.57
2017-12-25T05:03:43.796Z,130.53
2017-12-25T05:06:11.835Z,133.63
2017-12-25T05:08:40.764Z,119.13
2017-12-25T05:11:08.828Z,125.30
2017-12-25T05:13:36.807Z,112.37
2017-12-25T05:16:05.164Z,111.07
2017-12-25T05:18:33.895Z,116.73
2017-12-25T05:21:01.948Z,108.53
2017-12-25T05:23:30.029Z,101.60
2017-12-25T05:25:58.140Z,93.93
2017-12-25T05:28:26.209Z,85.83
2017-12-25T05:30:54.396Z,87.53
2017-12-25T05:33:22.464Z,84.53
2017-12-25T05:35:50.550Z,89.93
2017-12-25T05:38:19.395Z,85.00
2017-12-25T05:40:47.388Z,70.43
2017-12-25T05:43:15.471Z,81.20
2017-12-25T05:45:43.772Z,81.83
2017-12-25T05:48:12.576Z,75.07
2017-12-25T05:50:40.585Z,76.97
2017-12-25T05:53:08.780Z,68.10
2017-12-25T05:55:36.856Z,65.50
2017-12-25T05:58:04.813Z,68.97
2017-12-25T06:00:32.959Z,66.07
2017-12-25T06:03:00.955Z,70.90
2017-12-25T06:05:29.020Z,69.10
2017-12-25T06:07:57.128Z,69.13
2017-12-25T06:10:25.115Z,68.67
2017-12-25T06:12:53.949Z,60.30
2017-12-25T06:15:22.130Z,60.63
2017-12-25T06:17:50.364Z,61.17
2017-12-25T06:20:19.070Z,66.17
2017-12-25T06:22:47.203Z,60.27
2017-12-25T06:25:15.241Z,62.83
2017-12-25T06:27:43.256Z,62.03
2017-12-25T06:30:12.144Z,65.70
2017-12-25T06:32:40.518Z,62.27
2017-12-25T06:35:08.599Z,62.80
2017-12-25T06:37:37.446Z,59.97
2017-12-25T06:40:06.387Z,57.07
2017-12-25T06:42:35.097Z,59.50
2017-12-25T06:45:03.199Z,61.47
2017-12-25T06:47:31.242Z,63.50
2017-12-25T06:49:59.272Z,62.70
2017-12-25T06:52:27.447Z,57.13
2017-12-25T06:54:55.591Z,60.80
2017-12-25T06:57:23.594Z,61.77
2017-12-25T06:59:51.738Z,59.63
2017-12-25T07:02:19.755Z,56.40
2017-12-25T07:04:47.755Z,57.63
2017-12-25T07:07:15.812Z,60.40
2017-12-25T07:09:44.479Z,60.93
2017-12-25T07:12:12.349Z,55.60
2017-12-25T07:14:40.390Z,55.93
2017-12-25T07:17:08.298Z,55.90
2017-12-25T07:19:36.358Z,55.77
2017-12-25T07:22:04.361Z,50.77
2017-12-25T07:24:33.035Z,51.10
2017-12-25T07:27:01.669Z,54.93
2017-12-25T07:29:29.680Z,53.57
2017-12-25T07:31:57.611Z,53.67
2017-12-25T07:34:25.538Z,49.60
2017-12-25T07:36:54.343Z,49.83
2017-12-25T07:39:22.236Z,51.93
2017-12-25T07:41:50.159Z,49.83
2017-12-25T07:44:18.913Z,48.50
2017-12-25T07:46:46.844Z,45.13
2017-12-25T07:49:14.795Z,51.80
2017-12-25T07:51:43.585Z,59.83
2017-12-25T07:54:12.240Z,53.40
2017-12-25T07:56:40.253Z,58.50
2017-12-25T07:59:09.030Z,50.00
2017-12-25T08:01:37.765Z,61.57
2017-12-25T08:04:05.673Z,47.63
2017-12-25T08:06:34.516Z,44.80
2017-12-25T08:09:02.417Z,45.60
2017-12-25T08:11:30.369Z,48.13
2017-12-25T08:13:58.438Z,48.10
2017-12-25T08:16:26.455Z,48.30
2017-12-25T08:18:55.190Z,49.43
2017-12-25T08:21:23.380Z,52.13
2017-12-25T08:23:51.313Z,47.40
2017-12-25T08:26:19.322Z,50.73
2017-12-25T08:28:47.381Z,54.47
2017-12-25T08:31:15.370Z,48.27
2017-12-25T08:33:43.343Z,45.30
2017-12-25T08:36:11.436Z,42.90
2017-12-25T08:38:39.383Z,43.40
2017-12-25T08:41:07.457Z,43.80
2017-12-25T08:43:35.551Z,51.07
2017-12-25T08:46:04.575Z,48.13
2017-12-25T08:48:33.261Z,51.23
2017-12-25T08:51:02.103Z,40.27
2017-12-25T08:53:30.087Z,38.17
2017-12-25T08:55:58.161Z,44.40
2017-12-25T08:58:26.213Z,37.77
2017-12-25T09:00:54.187Z,37.13
2017-12-25T09:03:22.163Z,38.33
2017-12-25T09:05:50.295Z,30.20
2017-12-25T09:08:18.271Z,37.93
2017-12-25T09:10:46.258Z,34.20
2017-12-25T09:13:14.402Z,41.50
2017-12-25T09:15:42.460Z,43.80
2017-12-25T09:18:11.169Z,45.23
2017-12-25T09:20:39.271Z,36.17
2017-12-25T09:23:07.379Z,38.20
2017-12-25T09:25:35.362Z,32.43
2017-12-25T09:28:04.211Z,32.17
2017-12-25T09:30:32.206Z,34.00
2017-12-25T09:33:00.179Z,30.77
2017-12-25T09:35:28.262Z,33.20
2017-12-25T09:37:56.987Z,37.20
2017-12-25T09:40:24.921Z,31.93
2017-12-25T09:42:52.981Z,37.23
2017-12-25T09:45:21.041Z,32.90
2017-12-25T09:47:49.019Z,40.30
2017-12-25T09:50:17.118Z,37.37
2017-12-25T09:52:45.109Z,41.97
2017-12-25T09:55:13.113Z,35.23
2017-12-25T09:57:41.185Z,32.33
2017-12-25T10:00:09.145Z,32.63
2017-12-25T10:02:37.126Z,36.47
2017-12-25T10:05:05.184Z,31.17
2017-12-25T10:07:33.163Z,35.83
2017-12-25T10:10:01.155Z,39.97
2017-12-25T10:12:29.239Z,38.37
2017-12-25T10:14:57.211Z,44.57
2017-12-25T10:17:25.202Z,41.90
2017-12-25T10:19:54.051Z,41.73
2017-12-25T10:22:22.024Z,35.93
2017-12-25T10:24:50.139Z,39.53
2017-12-25T10:27:18.932Z,40.07
2017-12-25T10:29:46.927Z,39.57
2017-12-25T10:32:14.894Z,41.97
2017-12-25T10:34:42.999Z,38.43
2017-12-25T10:37:10.933Z,38.00
2017-12-25T10:39:38.869Z,34.20
2017-12-25T10:42:06.976Z,35.53
2017-12-25T10:44:34.920Z,37.30
2017-12-25T10:47:02.856Z,34.87
2017-12-25T10:49:30.962Z,34.70
2017-12-25T10:51:58.905Z,38.03
2017-12-25T10:54:26.861Z,37.80
2017-12-25T10:56:54.925Z,36.27
2017-12-25T10:59:22.852Z,38.67
2017-12-25T11:01:51.537Z,37.43
2017-12-25T11:04:20.349Z,37.53
2017-12-25T11:06:48.373Z,33.77
2017-12-25T11:09:16.317Z,39.80
2017-12-25T11:11:44.363Z,41.80
2017-12-25T11:14:12.301Z,35.40
2017-12-25T11:16:40.383Z,40.47
2017-12-25T11:19:09.193Z,32.13
2017-12-25T11:21:37.926Z,32.80
2017-12-25T11:24:05.841Z,39.13
2017-12-25T11:26:34.955Z,37.20
2017-12-25T11:29:02.940Z,36.17
2017-12-25T11:31:30.918Z,34.63
2017-12-25T11:33:59.027Z,30.57
2017-12-25T11:36:27.119Z,28.47
2017-12-25T11:38:55.840Z,28.87
2017-12-25T11:41:23.897Z,29.83
2017-12-25T11:43:51.876Z,34.53
2017-12-25T11:46:19.873Z,30.90
2017-12-25T11:48:47.975Z,33.87
2017-12-25T11:51:15.974Z,37.27
2017-12-25T11:53:44.706Z,38.30
2017-12-25T11:56:12.825Z,33.93
2017-12-25T11:58:41.509Z,34.17
2017-12-25T12:01:09.445Z,39.17
2017-12-25T12:03:37.555Z,37.13
2017-12-25T12:06:05.626Z,37.57
2017-12-25T12:08:34.366Z,37.50
2017-12-25T12:11:02.470Z,40.03
2017-12-25T12:13:30.446Z,38.90
2017-12-25T12:15:58.507Z,39.67
2017-12-25T12:18:26.561Z,40.63
2017-12-25T12:20:54.509Z,41.27
2017-12-25T12:23:22.488Z,42.60
2017-12-25T12:25:50.609Z,41.73
2017-12-25T12:28:18.718Z,44.80
2017-12-25T12:30:46.699Z,37.60
2017-12-25T12:33:14.798Z,42.33
2017-12-25T12:35:42.823Z,44.53
2017-12-25T12:38:11.555Z,43.37
2017-12-25T12:40:39.668Z,44.80
2017-12-25T12:43:07.662Z,47.63
2017-12-25T12:45:36.341Z,46.23
2017-12-25T12:48:05.198Z,45.00
2017-12-25T12:50:33.125Z,44.60
2017-12-25T12:53:01.091Z,40.27
2017-12-25T12:55:29.145Z,48.27
2017-12-25T12:57:57.855Z,44.70
2017-12-25T13:00:25.877Z,50.27
2017-12-25T13:02:53.986Z,47.57
2017-12-25T13:05:22.725Z,51.03
2017-12-25T13:07:50.656Z,50.53
2017-12-25T13:10:18.745Z,48.43
2017-12-25T13:12:46.694Z,53.67
2017-12-25T13:15:14.675Z,52.13
2017-12-25T13:17:42.835Z,51.07
2017-12-25T13:20:11.592Z,50.23
2017-12-25T13:22:39.591Z,52.67
2017-12-25T13:25:07.787Z,56.47
2017-12-25T13:27:35.790Z,56.40
2017-12-25T13:30:03.973Z,57.33
2017-12-25T13:32:32.085Z,60.13
2017-12-25T13:35:00.841Z,59.50
2017-12-25T13:37:28.797Z,62.97
2017-12-25T13:39:56.865Z,62.00
2017-12-25T13:42:24.805Z,64.87
2017-12-25T13:44:52.847Z,65.20
2017-12-25T13:47:20.970Z,67.77
2017-12-25T13:49:48.900Z,70.43
2017-12-25T13:52:17.589Z,70.13
2017-12-25T13:54:46.435Z,68.37
2017-12-25T13:57:14.426Z,69.70
2017-12-25T13:59:42.423Z,71.27
2017-12-25T14:02:11.235Z,75.37
2017-12-25T14:04:39.211Z,73.47
2017-12-25T14:07:07.148Z,77.40
2017-12-25T14:09:35.956Z,75.07
2017-12-25T14:12:03.950Z,75.67
2017-12-25T14:14:31.955Z,70.20
2017-12-25T14:17:00.059Z,68.90
2017-12-25T14:19:28.772Z,74.40
2017-12-25T14:21:57.525Z,73.73
2017-12-25T14:24:26.402Z,73.50
2017-12-25T14:26:54.367Z,71.40
2017-12-25T14:29:22.319Z,72.50
2017-12-25T14:31:50.591Z,70.37
2017-12-25T14:34:18.541Z,73.40
2017-12-25T14:36:46.587Z,70.23
2017-12-25T14:39:15.439Z,76.90
2017-12-25T14:41:43.419Z,85.77
2017-12-25T14:44:11.402Z,82.80
2017-12-25T14:46:40.325Z,88.13
2017-12-25T14:49:08.307Z,88.30
2017-12-25T14:51:36.249Z,98.30
2017-12-25T14:54:05.088Z,87.20
2017-12-25T14:56:33.064Z,105.13
2017-12-25T14:59:01.002Z,103.30
2017-12-25T15:01:29.053Z,95.50
2017-12-25T15:03:57.759Z,92.17
2017-12-25T15:06:25.801Z,95.17
2017-12-25T15:08:54.647Z,95.57
2017-12-25T15:11:22.771Z,104.50
2017-12-25T15:13:51.506Z,97.40
2017-12-25T15:16:19.615Z,93.63
2017-12-25T15:18:47.593Z,88.40
2017-12-25T15:21:15.525Z,82.67
2017-12-25T15:23:43.639Z,86.00
2017-12-25T15:26:11.734Z,92.03
2017-12-25T15:28:40.417Z,82.57
2017-12-25T15:31:09.219Z,87.77
2017-12-25T15:33:37.281Z,95.77
2017-12-25T15:36:06.025Z,93.40
2017-12-25T15:38:34.126Z,89.50
2017-12-25T15:41:02.069Z,88.20
2017-12-25T15:43:30.047Z,91.30
2017-12-25T15:45:58.228Z,87.60
2017-12-25T15:48:26.223Z,82.70
2017-12-25T15:50:54.947Z,92.90
2017-12-25T15:53:23.048Z,92.00
2017-12-25T15:55:51.000Z,107.40
2017-12-25T15:58:18.982Z,111.50
2017-12-25T16:00:47.083Z,106.00
2017-12-25T16:03:15.075Z,110.57
2017-12-25T16:05:43.856Z,120.53
2017-12-25T16:08:12.661Z,121.63
2017-12-25T16:10:41.367Z,118.07
2017-12-25T16:13:09.312Z,120.00
2017-12-25T16:15:38.153Z,118.23
2017-12-25T16:18:06.089Z,118.03
2017-12-25T16:20:34.033Z,124.33
2017-12-25T16:23:02.883Z,131.13
2017-12-25T16:25:30.821Z,128.80
2017-12-25T16:27:58.802Z,136.93
2017-12-25T16:30:26.919Z,133.50
2017-12-25T16:32:54.846Z,134.10
2017-12-25T16:35:23.794Z,128.90
2017-12-25T16:37:51.861Z,130.23
2017-12-25T16:40:20.033Z,136.80
2017-12-25T16:42:48.063Z,129.10
2017-12-25T16:45:16.122Z,136.87
2017-12-25T16:47:44.115Z,136.27
2017-12-25T16:50:12.061Z,142.30
2017-12-25T16:52:40.125Z,141.87
2017-12-25T16:55:08.820Z,136.03
2017-12-25T16:57:36.794Z,137.97
2017-12-25T17:00:04.899Z,142.77
2017-12-25T17:02:32.890Z,139.13
2017-12-25T17:05:01.015Z,135.93
2017-12-25T17:07:29.105Z,138.37
2017-12-25T17:09:57.081Z,137.57
2017-12-25T17:12:25.062Z,134.87
2017-12-25T17:14:53.125Z,131.20
2017-12-25T17:17:21.117Z,131.33
2017-12-25T17:19:49.123Z,131.60
2017-12-25T17:22:24.296Z,140.67
2017-12-25T17:24:52.746Z,141.00
2017-12-25T17:27:21.443Z,143.20
2017-12-25T17:29:49.377Z,144.63
2017-12-25T17:32:17.350Z,143.67
2017-12-25T17:34:45.323Z,150.40
2017-12-25T17:37:15.329Z,148.60
2017-12-25T17:39:43.302Z,149.13
2017-12-25T17:42:11.237Z,146.43
2017-12-25T17:44:39.340Z,155.90
2017-12-25T17:47:07.319Z,162.07
2017-12-25T17:49:35.253Z,156.63
2017-12-25T17:52:03.355Z,157.37
2017-12-25T17:54:31.301Z,157.90
2017-12-25T17:56:59.233Z,167.30
2017-12-25T17:59:28.057Z,161.43
2017-12-25T18:01:56.001Z,163.23
2017-12-25T18:04:23.975Z,154.97
2017-12-25T18:06:52.029Z,151.90
2017-12-25T18:09:20.700Z,147.07
2017-12-25T18:11:48.671Z,145.20
2017-12-25T18:14:17.523Z,150.87
2017-12-25T18:16:45.543Z,150.33
2017-12-25T18:19:14.222Z,157.10
2017-12-25T18:21:42.327Z,154.23
2017-12-25T18:24:10.302Z,155.17
2017-12-25T18:26:38.293Z,162.00
2017-12-25T18:29:06.333Z,160.40
2017-12-25T18:31:35.058Z,165.07
2017-12-25T18:34:03.065Z,157.83
2017-12-25T18:36:31.267Z,163.87
2017-12-25T18:39:00.103Z,162.60
2017-12-25T18:41:28.033Z,162.87
2017-12-25T18:43:56.147Z,158.43
2017-12-25T18:46:24.147Z,161.53
2017-12-25T18:48:52.072Z,158.30
2017-12-25T18:51:20.125Z,152.87
2017-12-25T18:53:48.099Z,152.90
2017-12-25T18:56:16.113Z,151.40
2017-12-25T18:58:44.161Z,150.63
2017-12-25T19:01:12.093Z,150.90
2017-12-25T19:03:40.815Z,155.00
2017-12-25T19:06:08.909Z,165.83
2017-12-25T19:08:36.931Z,147.83
2017-12-25T19:11:05.656Z,150.87
2017-12-25T19:13:33.721Z,142.27
2017-12-25T19:16:01.717Z,145.57
2017-12-25T19:18:29.833Z,144.93
2017-12-25T19:20:58.862Z,146.83
2017-12-25T19:23:26.797Z,147.77
2017-12-25T19:25:55.579Z,153.80
2017-12-25T19:28:24.413Z,156.13
2017-12-25T19:30:52.407Z,162.30
2017-12-25T19:33:20.333Z,165.13
2017-12-25T19:35:48.380Z,175.83
2017-12-25T19:38:17.045Z,171.30
2017-12-25T19:40:45.105Z,170.63
2017-12-25T19:43:13.194Z,181.90
2017-12-25T19:45:41.237Z,161.10
2017-12-25T19:48:09.948Z,157.23
2017-12-25T19:50:37.989Z,158.70
2017-12-25T19:53:05.963Z,162.57
2017-12-25T19:55:33.892Z,146.13
2017-12-25T19:58:02.681Z,147.33
2017-12-25T20:00:31.481Z,153.70
2017-12-25T20:03:00.163Z,154.20
2017-12-25T20:05:28.988Z,143.53
2017-12-25T20:07:56.923Z,126.57
2017-12-25T20:10:25.630Z,142.40
2017-12-25T20:12:53.716Z,134.33
2017-12-25T20:15:21.695Z,114.07
2017-12-25T20:17:49.715Z,125.20
2017-12-25T20:20:18.545Z,116.60
2017-12-25T20:22:46.530Z,135.27
2017-12-25T20:25:14.465Z,129.20
2017-12-25T20:27:43.295Z,126.57
2017-12-25T20:30:11.274Z,118.53
2017-12-25T20:32:39.197Z,123.17
2017-12-25T20:35:07.303Z,122.20
2017-12-25T20:37:35.229Z,122.70
2017-12-25T20:40:03.999Z,128.10
2017-12-25T20:42:32.200Z,119.70
2017-12-25T20:45:00.919Z,120.27
2017-12-25T20:47:28.907Z,117.97
2017-12-25T20:49:56.994Z,116.63
2017-12-25T20:52:24.954Z,130.97
2017-12-25T20:54:52.930Z,133.50
2017-12-25T20:57:21.076Z,128.50
2017-12-25T20:59:49.021Z,143.03
2017-12-25T21:02:16.961Z,140.63
2017-12-25T21:04:45.052Z,146.63
2017-12-25T21:07:13.717Z,164.53
2017-12-25T21:09:41.690Z,189.17
2017-12-25T21:12:09.761Z,179.80
2017-12-25T21:14:37.742Z,204.03
2017-12-25T21:17:06.467Z,207.37
2017-12-25T21:19:34.552Z,198.67
2017-12-25T21:22:02.523Z,182.10
2017-12-25T21:24:30.515Z,180.10
2017-12-25T21:26:58.600Z,173.27
2017-12-25T21:29:26.574Z,168.77
2017-12-25T21:31:54.547Z,157.50
2017-12-25T21:34:22.605Z,155.37
2017-12-25T21:36:50.583Z,145.07
2017-12-25T21:39:18.559Z,166.63
2017-12-25T21:41:46.654Z,164.57
2017-12-25T21:44:15.514Z,172.50
2017-12-25T21:46:43.615Z,182.00
2017-12-25T21:49:12.417Z,183.20
2017-12-25T21:51:41.132Z,185.40
2017-12-25T21:54:09.053Z,199.43
2017-12-25T21:56:37.192Z,189.57
2017-12-25T21:59:05.179Z,215.77
2017-12-25T22:01:33.105Z,209.80
2017-12-25T22:04:01.204Z,206.73
2017-12-25T22:06:29.232Z,208.63
2017-12-25T22:08:57.213Z,222.40
2017-12-25T22:11:25.303Z,217.83
2017-12-25T22:13:53.229Z,222.50
2017-12-25T22:16:21.306Z,227.67
2017-12-25T22:18:50.144Z,203.57
2017-12-25T22:21:18.121Z,223.53
2017-12-25T22:23:46.058Z,208.63
2017-12-25T22:26:14.197Z,209.20
2017-12-25T22:28:42.166Z,212.13
2017-12-25T22:31:10.143Z,210.90
2017-12-25T22:33:38.205Z,207.63
2017-12-25T22:36:06.254Z,200.87
2017-12-25T22:38:34.222Z,158.30
2017-12-25T22:41:02.287Z,192.40
2017-12-25T22:43:30.233Z,192.90
2017-12-25T22:45:58.386Z,181.50
2017-12-25T22:48:27.230Z,166.50
2017-12-25T22:50:55.195Z,181.33
2017-12-25T22:53:23.216Z,176.67
2017-12-25T22:55:51.270Z,182.20
2017-12-25T22:58:19.247Z,185.93
2017-12-25T23:00:47.245Z,207.33
2017-12-25T23:03:16.013Z,198.17
2017-12-25T23:05:43.954Z,202.57
2017-12-25T23:08:11.914Z,202.77
2017-12-25T23:10:39.948Z,202.07
2017-12-25T23:13:08.652Z,193.20
2017-12-25T23:15:36.557Z,202.03
2017-12-25T23:18:04.593Z,211.20
2017-12-25T23:20:32.542Z,221.63
2017-12-25T23:23:01.239Z,219.60
2017-12-25T23:25:30.069Z,217.27
2017-12-25T23:27:57.980Z,205.07
2017-12-25T23:30:26.671Z,213.73
2017-12-25T23:32:55.452Z,208.43
2017-12-25T23:35:23.369Z,196.90
2017-12-25T23:37:51.346Z,199.47
2017-12-25T23:40:19.404Z,209.93
2017-12-25T23:42:47.333Z,190.07
2017-12-25T23:45:15.276Z,199.30
2017-12-25T23:47:43.528Z,174.20
2017-12-25T23:50:11.507Z,182.17
2017-12-25T23:52:39.449Z,188.07
2017-12-25T23:55:08.343Z,189.53
2017-12-25T23:57:36.307Z,180.10
